sensor_id;sensor_type;location;lat;lon;timestamp;pressure;altitude;pressure_sealevel;temperature;humidity
75996;BME280;64681;49.738;9.004;2023-03-23T00:01:43;98717.09;;;14.53;54.04
75996;BME280;64681;49.738;9.004;2023-03-23T00:13:00;98722.44;;;14.49;54.11
75996;BME280;64681;49.738;9.004;2023-03-23T00:30:42;98718.34;;;14.21;54.98
75996;BME280;64681;49.738;9.004;2023-03-23T00:33:08;98720.88;;;14.07;54.41
75996;BME280;64681;49.738;9.004;2023-03-23T00:35:34;98714.91;;;14.21;55.50
75996;BME280;64681;49.738;9.004;2023-03-23T00:38:02;98709.34;;;14.03;55.74
75996;BME280;64681;49.738;9.004;2023-03-23T00:40:30;98704.56;;;13.85;56.63
75996;BME280;64681;49.738;9.004;2023-03-23T00:42:56;98701.94;;;14.30;55.21
75996;BME280;64681;49.738;9.004;2023-03-23T00:45:21;98697.34;;;13.89;55.59
75996;BME280;64681;49.738;9.004;2023-03-23T00:47:47;98687.44;;;13.97;55.31
75996;BME280;64681;49.738;9.004;2023-03-23T00:50:16;98685.53;;;13.98;54.70
75996;BME280;64681;49.738;9.004;2023-03-23T00:52:43;98682.16;;;14.08;55.51
75996;BME280;64681;49.738;9.004;2023-03-23T00:55:09;98675.47;;;14.29;55.08
75996;BME280;64681;49.738;9.004;2023-03-23T00:57:35;98671.59;;;14.30;54.61
75996;BME280;64681;49.738;9.004;2023-03-23T01:00:01;98679.34;;;14.35;54.92
75996;BME280;64681;49.738;9.004;2023-03-23T01:02:29;98679.31;;;14.31;54.75
75996;BME280;64681;49.738;9.004;2023-03-23T01:04:54;98676.66;;;14.35;54.39
75996;BME280;64681;49.738;9.004;2023-03-23T01:07:21;98675.53;;;14.36;55.23
75996;BME280;64681;49.738;9.004;2023-03-23T01:09:48;98667.22;;;14.55;53.31
75996;BME280;64681;49.738;9.004;2023-03-23T01:12:14;98671.19;;;14.72;53.70
75996;BME280;64681;49.738;9.004;2023-03-23T01:14:41;98670.63;;;14.52;53.17
75996;BME280;64681;49.738;9.004;2023-03-23T01:17:07;98664.94;;;14.61;53.48
75996;BME280;64681;49.738;9.004;2023-03-23T01:19:33;98657.97;;;14.53;52.68
75996;BME280;64681;49.738;9.004;2023-03-23T01:21:58;98649.47;;;14.44;51.98
75996;BME280;64681;49.738;9.004;2023-03-23T01:24:24;98663.22;;;14.35;53.95
75996;BME280;64681;49.738;9.004;2023-03-23T01:26:50;98656.03;;;14.50;52.01
75996;BME280;64681;49.738;9.004;2023-03-23T01:29:15;98659.69;;;14.23;52.99
75996;BME280;64681;49.738;9.004;2023-03-23T01:31:41;98652.09;;;14.36;52.14
75996;BME280;64681;49.738;9.004;2023-03-23T01:34:08;98638.00;;;14.50;50.94
75996;BME280;64681;49.738;9.004;2023-03-23T01:36:35;98652.25;;;14.58;51.81
75996;BME280;64681;49.738;9.004;2023-03-23T01:39:04;98655.31;;;14.56;51.71
75996;BME280;64681;49.738;9.004;2023-03-23T01:41:31;98651.09;;;14.55;52.27
75996;BME280;64681;49.738;9.004;2023-03-23T01:44:03;98651.78;;;14.49;51.80
75996;BME280;64681;49.738;9.004;2023-03-23T01:46:35;98657.06;;;14.86;50.92
75996;BME280;64681;49.738;9.004;2023-03-23T01:49:39;98650.53;;;14.84;50.93
75996;BME280;64681;49.738;9.004;2023-03-23T01:52:03;98659.72;;;14.83;50.57
75996;BME280;64681;49.738;9.004;2023-03-23T01:54:31;98649.69;;;14.72;51.51
75996;BME280;64681;49.738;9.004;2023-03-23T01:59:29;98646.13;;;14.61;52.58
75996;BME280;64681;49.738;9.004;2023-03-23T02:01:55;98644.03;;;14.36;52.66
75996;BME280;64681;49.738;9.004;2023-03-23T02:04:23;98648.75;;;14.47;52.94
75996;BME280;64681;49.738;9.004;2023-03-23T02:06:51;98648.28;;;14.37;52.17
75996;BME280;64681;49.738;9.004;2023-03-23T02:09:18;98643.84;;;14.60;52.14
75996;BME280;64681;49.738;9.004;2023-03-23T02:11:46;98644.28;;;14.69;51.07
75996;BME280;64681;49.738;9.004;2023-03-23T02:14:12;98648.94;;;14.76;51.71
75996;BME280;64681;49.738;9.004;2023-03-23T02:17:02;98643.38;;;14.50;52.91
75996;BME280;64681;49.738;9.004;2023-03-23T02:25:22;98619.28;;;14.09;53.65
75996;BME280;64681;49.738;9.004;2023-03-23T02:28:05;98620.91;;;14.21;53.07
75996;BME280;64681;49.738;9.004;2023-03-23T02:33:38;98637.16;;;14.39;53.24
75996;BME280;64681;49.738;9.004;2023-03-23T02:36:19;98634.50;;;14.43;53.99
75996;BME280;64681;49.738;9.004;2023-03-23T02:39:24;98653.56;;;14.27;54.04
75996;BME280;64681;49.738;9.004;2023-03-23T02:41:58;98649.78;;;14.31;54.06
75996;BME280;64681;49.738;9.004;2023-03-23T02:44:28;98645.69;;;14.52;52.58
75996;BME280;64681;49.738;9.004;2023-03-23T02:46:57;98631.47;;;14.48;51.53
75996;BME280;64681;49.738;9.004;2023-03-23T02:49:28;98632.09;;;14.27;53.65
75996;BME280;64681;49.738;9.004;2023-03-23T02:51:58;98628.78;;;14.48;53.15
75996;BME280;64681;49.738;9.004;2023-03-23T02:54:26;98624.59;;;14.54;53.17
75996;BME280;64681;49.738;9.004;2023-03-23T02:56:54;98607.06;;;14.67;52.52
75996;BME280;64681;49.738;9.004;2023-03-23T02:59:21;98607.28;;;14.44;53.80
75996;BME280;64681;49.738;9.004;2023-03-23T03:02:14;98597.06;;;14.12;54.94
75996;BME280;64681;49.738;9.004;2023-03-23T03:05:13;98599.97;;;14.45;53.72
75996;BME280;64681;49.738;9.004;2023-03-23T03:10:49;98603.44;;;14.45;54.06
75996;BME280;64681;49.738;9.004;2023-03-23T03:16:05;98604.66;;;14.03;55.30
75996;BME280;64681;49.738;9.004;2023-03-23T03:18:48;98607.44;;;14.14;54.33
75996;BME280;64681;49.738;9.004;2023-03-23T03:21:18;98608.00;;;14.37;53.49
75996;BME280;64681;49.738;9.004;2023-03-23T03:23:54;98607.69;;;14.53;54.08
75996;BME280;64681;49.738;9.004;2023-03-23T03:26:24;98603.75;;;14.36;54.40
75996;BME280;64681;49.738;9.004;2023-03-23T03:28:52;98607.09;;;14.22;55.14
75996;BME280;64681;49.738;9.004;2023-03-23T03:31:22;98604.16;;;14.35;54.46
75996;BME280;64681;49.738;9.004;2023-03-23T03:33:49;98602.13;;;14.21;56.58
75996;BME280;64681;49.738;9.004;2023-03-23T03:36:26;98614.16;;;14.45;53.90
75996;BME280;64681;49.738;9.004;2023-03-23T03:38:52;98608.31;;;14.29;54.85
75996;BME280;64681;49.738;9.004;2023-03-23T03:41:19;98609.19;;;14.44;54.38
75996;BME280;64681;49.738;9.004;2023-03-23T03:43:45;98602.97;;;14.29;55.49
75996;BME280;64681;49.738;9.004;2023-03-23T03:46:11;98604.88;;;14.32;55.27
75996;BME280;64681;49.738;9.004;2023-03-23T03:48:37;98596.88;;;14.39;55.49
75996;BME280;64681;49.738;9.004;2023-03-23T03:51:02;98609.19;;;13.95;55.93
75996;BME280;64681;49.738;9.004;2023-03-23T03:53:29;98601.81;;;13.81;56.46
75996;BME280;64681;49.738;9.004;2023-03-23T03:55:56;98598.50;;;13.99;56.39
75996;BME280;64681;49.738;9.004;2023-03-23T03:58:25;98594.59;;;13.92;57.16
75996;BME280;64681;49.738;9.004;2023-03-23T04:00:58;98591.09;;;14.37;54.40
75996;BME280;64681;49.738;9.004;2023-03-23T04:03:24;98603.81;;;14.44;54.86
75996;BME280;64681;49.738;9.004;2023-03-23T04:05:51;98596.94;;;13.94;56.53
75996;BME280;64681;49.738;9.004;2023-03-23T04:08:16;98584.34;;;14.02;57.21
75996;BME280;64681;49.738;9.004;2023-03-23T04:10:43;98589.06;;;14.19;56.59
75996;BME280;64681;49.738;9.004;2023-03-23T04:13:08;98577.81;;;13.99;56.29
75996;BME280;64681;49.738;9.004;2023-03-23T04:15:34;98582.38;;;13.99;55.47
75996;BME280;64681;49.738;9.004;2023-03-23T04:18:00;98580.22;;;14.19;55.35
75996;BME280;64681;49.738;9.004;2023-03-23T04:20:25;98576.25;;;13.98;56.67
75996;BME280;64681;49.738;9.004;2023-03-23T04:22:52;98578.19;;;13.98;56.35
75996;BME280;64681;49.738;9.004;2023-03-23T04:25:20;98586.88;;;14.32;55.01
75996;BME280;64681;49.738;9.004;2023-03-23T04:27:47;98589.59;;;13.87;56.11
75996;BME280;64681;49.738;9.004;2023-03-23T04:30:22;98590.63;;;14.20;55.60
75996;BME280;64681;49.738;9.004;2023-03-23T04:32:49;98589.66;;;13.95;56.67
75996;BME280;64681;49.738;9.004;2023-03-23T04:35:17;98596.25;;;14.08;56.53
75996;BME280;64681;49.738;9.004;2023-03-23T04:37:43;98589.94;;;14.34;55.96
75996;BME280;64681;49.738;9.004;2023-03-23T04:40:09;98592.72;;;14.52;55.20
75996;BME280;64681;49.738;9.004;2023-03-23T04:42:39;98595.69;;;14.36;55.12
75996;BME280;64681;49.738;9.004;2023-03-23T04:45:07;98592.66;;;14.41;55.94
75996;BME280;64681;49.738;9.004;2023-03-23T04:47:35;98600.69;;;14.38;55.52
75996;BME280;64681;49.738;9.004;2023-03-23T04:50:10;98610.03;;;14.55;56.06
75996;BME280;64681;49.738;9.004;2023-03-23T04:52:38;98613.13;;;14.64;55.57
75996;BME280;64681;49.738;9.004;2023-03-23T04:55:08;98581.81;;;14.23;57.08
75996;BME280;64681;49.738;9.004;2023-03-23T04:57:34;98618.34;;;14.39;56.88
75996;BME280;64681;49.738;9.004;2023-03-23T05:00:01;98612.44;;;14.15;57.10
75996;BME280;64681;49.738;9.004;2023-03-23T05:02:30;98627.81;;;14.18;57.24
75996;BME280;64681;49.738;9.004;2023-03-23T05:04:56;98628.31;;;14.35;57.96
75996;BME280;64681;49.738;9.004;2023-03-23T05:07:23;98617.63;;;14.42;56.58
75996;BME280;64681;49.738;9.004;2023-03-23T05:09:49;98637.16;;;14.39;57.77
75996;BME280;64681;49.738;9.004;2023-03-23T05:12:15;98621.00;;;14.32;57.38
75996;BME280;64681;49.738;9.004;2023-03-23T05:14:42;98618.56;;;14.12;58.60
75996;BME280;64681;49.738;9.004;2023-03-23T05:17:08;98625.25;;;14.36;58.42
75996;BME280;64681;49.738;9.004;2023-03-23T05:19:34;98615.31;;;14.40;58.63
75996;BME280;64681;49.738;9.004;2023-03-23T05:22:01;98628.84;;;14.06;59.66
75996;BME280;64681;49.738;9.004;2023-03-23T05:24:30;98640.06;;;14.16;59.04
75996;BME280;64681;49.738;9.004;2023-03-23T05:26:59;98638.09;;;14.09;59.89
75996;BME280;64681;49.738;9.004;2023-03-23T05:29:26;98634.69;;;14.16;59.59
75996;BME280;64681;49.738;9.004;2023-03-23T05:31:52;98648.47;;;14.14;60.48
75996;BME280;64681;49.738;9.004;2023-03-23T05:34:20;98642.22;;;13.99;60.15
75996;BME280;64681;49.738;9.004;2023-03-23T05:36:46;98644.41;;;13.86;61.04
75996;BME280;64681;49.738;9.004;2023-03-23T05:39:12;98640.13;;;14.23;60.07
75996;BME280;64681;49.738;9.004;2023-03-23T05:41:39;98642.94;;;13.96;60.13
75996;BME280;64681;49.738;9.004;2023-03-23T05:44:04;98655.59;;;13.96;60.69
75996;BME280;64681;49.738;9.004;2023-03-23T05:46:30;98649.25;;;14.15;60.57
75996;BME280;64681;49.738;9.004;2023-03-23T05:48:56;98660.97;;;13.96;60.48
75996;BME280;64681;49.738;9.004;2023-03-23T05:51:21;98657.84;;;13.90;60.45
75996;BME280;64681;49.738;9.004;2023-03-23T05:53:47;98658.41;;;14.10;60.14
75996;BME280;64681;49.738;9.004;2023-03-23T05:56:13;98667.25;;;14.14;61.46
75996;BME280;64681;49.738;9.004;2023-03-23T05:58:39;98659.25;;;13.76;62.74
75996;BME280;64681;49.738;9.004;2023-03-23T06:01:09;98660.47;;;14.24;61.05
75996;BME280;64681;49.738;9.004;2023-03-23T06:03:34;98662.53;;;14.49;60.01
75996;BME280;64681;49.738;9.004;2023-03-23T06:06:03;98664.50;;;14.52;59.88
75996;BME280;64681;49.738;9.004;2023-03-23T06:08:29;98669.44;;;14.46;61.93
75996;BME280;64681;49.738;9.004;2023-03-23T06:10:55;98681.81;;;14.62;59.86
75996;BME280;64681;49.738;9.004;2023-03-23T06:13:22;98684.66;;;14.28;61.80
75996;BME280;64681;49.738;9.004;2023-03-23T06:15:49;98693.00;;;14.19;62.97
75996;BME280;64681;49.738;9.004;2023-03-23T06:18:15;98695.00;;;14.25;63.36
75996;BME280;64681;49.738;9.004;2023-03-23T06:20:40;98689.00;;;13.64;65.31
75996;BME280;64681;49.738;9.004;2023-03-23T06:23:08;98690.13;;;13.97;64.04
75996;BME280;64681;49.738;9.004;2023-03-23T06:25:34;98692.34;;;13.88;65.80
75996;BME280;64681;49.738;9.004;2023-03-23T06:28:00;98700.75;;;13.86;65.80
75996;BME280;64681;49.738;9.004;2023-03-23T06:30:26;98691.88;;;13.79;65.88
75996;BME280;64681;49.738;9.004;2023-03-23T06:32:53;98696.38;;;14.08;65.05
75996;BME280;64681;49.738;9.004;2023-03-23T06:35:19;98700.19;;;14.07;65.33
75996;BME280;64681;49.738;9.004;2023-03-23T06:37:45;98690.38;;;13.17;67.49
75996;BME280;64681;49.738;9.004;2023-03-23T06:40:11;98703.22;;;13.65;66.81
75996;BME280;64681;49.738;9.004;2023-03-23T06:42:37;98696.38;;;13.71;66.60
75996;BME280;64681;49.738;9.004;2023-03-23T06:45:04;98702.69;;;13.86;65.64
75996;BME280;64681;49.738;9.004;2023-03-23T06:47:30;98700.19;;;13.70;66.54
75996;BME280;64681;49.738;9.004;2023-03-23T06:49:56;98704.09;;;13.76;66.16
75996;BME280;64681;49.738;9.004;2023-03-23T06:52:22;98709.94;;;13.85;65.99
75996;BME280;64681;49.738;9.004;2023-03-23T06:54:50;98712.94;;;14.18;63.63
75996;BME280;64681;49.738;9.004;2023-03-23T06:57:16;98697.50;;;14.04;62.05
75996;BME280;64681;49.738;9.004;2023-03-23T06:59:42;98714.28;;;13.97;63.35
75996;BME280;64681;49.738;9.004;2023-03-23T07:02:13;98704.25;;;13.90;62.73
75996;BME280;64681;49.738;9.004;2023-03-23T07:04:42;98716.59;;;13.99;63.31
75996;BME280;64681;49.738;9.004;2023-03-23T07:07:09;98714.72;;;14.44;62.86
75996;BME280;64681;49.738;9.004;2023-03-23T07:09:36;98711.50;;;14.28;63.68
75996;BME280;64681;49.738;9.004;2023-03-23T07:12:02;98709.16;;;14.22;64.47
75996;BME280;64681;49.738;9.004;2023-03-23T07:14:29;98717.69;;;14.35;64.35
75996;BME280;64681;49.738;9.004;2023-03-23T07:16:54;98724.56;;;14.29;65.38
75996;BME280;64681;49.738;9.004;2023-03-23T07:19:20;98730.66;;;14.26;65.89
75996;BME280;64681;49.738;9.004;2023-03-23T07:21:45;98733.03;;;14.31;66.16
75996;BME280;64681;49.738;9.004;2023-03-23T07:24:12;98740.63;;;14.25;67.32
75996;BME280;64681;49.738;9.004;2023-03-23T07:26:41;98749.34;;;14.15;67.54
75996;BME280;64681;49.738;9.004;2023-03-23T07:29:08;98757.03;;;14.13;67.64
75996;BME280;64681;49.738;9.004;2023-03-23T07:31:35;98757.16;;;13.90;68.53
75996;BME280;64681;49.738;9.004;2023-03-23T07:34:02;98778.44;;;14.06;69.67
75996;BME280;64681;49.738;9.004;2023-03-23T07:36:29;98775.56;;;13.91;69.90
75996;BME280;64681;49.738;9.004;2023-03-23T07:38:55;98759.56;;;13.38;72.24
75996;BME280;64681;49.738;9.004;2023-03-23T07:41:22;98758.38;;;13.35;73.20
75996;BME280;64681;49.738;9.004;2023-03-23T07:43:48;98763.94;;;13.80;72.34
75996;BME280;64681;49.738;9.004;2023-03-23T07:46:13;98762.84;;;13.85;71.77
75996;BME280;64681;49.738;9.004;2023-03-23T07:48:39;98772.28;;;14.05;70.05
75996;BME280;64681;49.738;9.004;2023-03-23T07:51:06;98774.88;;;13.98;70.22
75996;BME280;64681;49.738;9.004;2023-03-23T07:53:33;98774.41;;;14.27;69.89
75996;BME280;64681;49.738;9.004;2023-03-23T07:55:58;98786.28;;;14.25;70.46
75996;BME280;64681;49.738;9.004;2023-03-23T07:58:24;98788.28;;;14.32;70.72
75996;BME280;64681;49.738;9.004;2023-03-23T08:00:51;98789.84;;;14.37;69.84
75996;BME280;64681;49.738;9.004;2023-03-23T08:03:18;98789.91;;;14.40;70.08
75996;BME280;64681;49.738;9.004;2023-03-23T08:05:44;98793.28;;;14.34;69.76
75996;BME280;64681;49.738;9.004;2023-03-23T08:08:10;98788.66;;;14.34;70.46
75996;BME280;64681;49.738;9.004;2023-03-23T08:10:35;98785.44;;;14.59;68.16
75996;BME280;64681;49.738;9.004;2023-03-23T08:13:03;98790.78;;;14.55;68.76
75996;BME280;64681;49.738;9.004;2023-03-23T08:15:29;98783.00;;;14.84;67.42
75996;BME280;64681;49.738;9.004;2023-03-23T08:17:55;98785.41;;;14.55;68.48
75996;BME280;64681;49.738;9.004;2023-03-23T08:20:21;98788.81;;;14.49;68.62
75996;BME280;64681;49.738;9.004;2023-03-23T08:22:55;98797.38;;;14.62;69.22
75996;BME280;64681;49.738;9.004;2023-03-23T08:25:22;98799.13;;;14.84;68.21
75996;BME280;64681;49.738;9.004;2023-03-23T08:27:48;98802.59;;;14.85;69.20
75996;BME280;64681;49.738;9.004;2023-03-23T08:30:17;98809.59;;;14.97;68.38
75996;BME280;64681;49.738;9.004;2023-03-23T08:32:45;98796.78;;;14.79;68.87
75996;BME280;64681;49.738;9.004;2023-03-23T08:35:12;98794.88;;;14.83;69.08
75996;BME280;64681;49.738;9.004;2023-03-23T08:37:38;98793.38;;;14.86;66.99
75996;BME280;64681;49.738;9.004;2023-03-23T08:40:05;98782.47;;;15.20;66.71
75996;BME280;64681;49.738;9.004;2023-03-23T08:42:42;98776.81;;;15.36;65.60
75996;BME280;64681;49.738;9.004;2023-03-23T08:45:12;98778.72;;;15.39;65.50
75996;BME280;64681;49.738;9.004;2023-03-23T08:47:38;98786.75;;;15.32;65.34
75996;BME280;64681;49.738;9.004;2023-03-23T08:50:06;98789.88;;;15.38;65.64
75996;BME280;64681;49.738;9.004;2023-03-23T08:52:33;98802.88;;;15.28;65.01
75996;BME280;64681;49.738;9.004;2023-03-23T08:54:59;98800.31;;;14.91;66.37
75996;BME280;64681;49.738;9.004;2023-03-23T08:57:26;98810.72;;;14.92;66.66
75996;BME280;64681;49.738;9.004;2023-03-23T08:59:51;98816.00;;;15.37;65.08
75996;BME280;64681;49.738;9.004;2023-03-23T09:02:20;98813.97;;;14.67;67.63
75996;BME280;64681;49.738;9.004;2023-03-23T09:04:46;98820.41;;;14.63;66.86
75996;BME280;64681;49.738;9.004;2023-03-23T09:07:12;98816.81;;;14.89;66.75
75996;BME280;64681;49.738;9.004;2023-03-23T09:09:40;98820.75;;;15.02;66.95
75996;BME280;64681;49.738;9.004;2023-03-23T09:12:08;98824.00;;;14.74;68.38
75996;BME280;64681;49.738;9.004;2023-03-23T09:14:35;98818.28;;;14.79;65.50
75996;BME280;64681;49.738;9.004;2023-03-23T09:17:02;98818.28;;;14.79;66.42
75996;BME280;64681;49.738;9.004;2023-03-23T09:19:29;98834.19;;;14.57;66.67
75996;BME280;64681;49.738;9.004;2023-03-23T09:21:54;98850.13;;;14.77;65.75
75996;BME280;64681;49.738;9.004;2023-03-23T09:24:20;98841.28;;;14.01;66.72
75996;BME280;64681;49.738;9.004;2023-03-23T09:26:46;98840.66;;;14.53;65.11
75996;BME280;64681;49.738;9.004;2023-03-23T09:29:12;98849.72;;;14.75;64.90
75996;BME280;64681;49.738;9.004;2023-03-23T09:31:38;98847.88;;;14.83;65.56
75996;BME280;64681;49.738;9.004;2023-03-23T09:34:06;98844.88;;;14.92;64.92
75996;BME280;64681;49.738;9.004;2023-03-23T09:36:32;98846.28;;;14.75;65.39
75996;BME280;64681;49.738;9.004;2023-03-23T09:38:58;98847.94;;;13.84;67.22
75996;BME280;64681;49.738;9.004;2023-03-23T09:44:58;98857.75;;;14.34;66.54
75996;BME280;64681;49.738;9.004;2023-03-23T09:52:52;98860.88;;;14.39;67.09
75996;BME280;64681;49.738;9.004;2023-03-23T09:55:20;98862.28;;;15.05;65.04
75996;BME280;64681;49.738;9.004;2023-03-23T09:58:20;98857.63;;;15.02;63.12
75996;BME280;64681;49.738;9.004;2023-03-23T10:01:00;98855.19;;;15.34;62.57
75996;BME280;64681;49.738;9.004;2023-03-23T10:03:42;98855.59;;;16.03;61.55
75996;BME280;64681;49.738;9.004;2023-03-23T10:06:14;98867.28;;;15.62;61.73
75996;BME280;64681;49.738;9.004;2023-03-23T10:09:04;98855.72;;;15.62;62.14
75996;BME280;64681;49.738;9.004;2023-03-23T10:17:19;98861.13;;;15.62;62.24
75996;BME280;64681;49.738;9.004;2023-03-23T10:19:52;98866.50;;;16.57;59.25
75996;BME280;64681;49.738;9.004;2023-03-23T10:22:31;98861.97;;;17.12;57.18
75996;BME280;64681;49.738;9.004;2023-03-23T10:33:04;98855.31;;;16.44;57.79
75996;BME280;64681;49.738;9.004;2023-03-23T10:38:28;98825.63;;;17.60;54.60
75996;BME280;64681;49.738;9.004;2023-03-23T10:41:00;98834.53;;;17.57;55.00
75996;BME280;64681;49.738;9.004;2023-03-23T10:43:27;98833.00;;;17.52;54.62
75996;BME280;64681;49.738;9.004;2023-03-23T10:46:27;98844.22;;;17.15;56.04
75996;BME280;64681;49.738;9.004;2023-03-23T10:48:58;98853.31;;;16.12;60.19
75996;BME280;64681;49.738;9.004;2023-03-23T10:51:33;98851.09;;;16.47;58.30
75996;BME280;64681;49.738;9.004;2023-03-23T10:54:02;98865.53;;;15.95;59.14
75996;BME280;64681;49.738;9.004;2023-03-23T10:56:39;98861.16;;;15.69;59.80
75996;BME280;64681;49.738;9.004;2023-03-23T10:59:34;98873.53;;;15.22;60.33
75996;BME280;64681;49.738;9.004;2023-03-23T11:02:02;98869.19;;;15.06;62.10
75996;BME280;64681;49.738;9.004;2023-03-23T11:04:38;98872.00;;;15.21;62.22
75996;BME280;64681;49.738;9.004;2023-03-23T11:07:17;98875.59;;;15.43;63.45
75996;BME280;64681;49.738;9.004;2023-03-23T11:09:56;98869.22;;;15.69;62.93
75996;BME280;64681;49.738;9.004;2023-03-23T11:12:23;98875.66;;;16.24;61.28
75996;BME280;64681;49.738;9.004;2023-03-23T11:14:50;98874.13;;;16.30;59.74
75996;BME280;64681;49.738;9.004;2023-03-23T11:17:33;98878.75;;;16.22;59.91
75996;BME280;64681;49.738;9.004;2023-03-23T11:20:10;98877.31;;;15.69;61.66
75996;BME280;64681;49.738;9.004;2023-03-23T11:22:36;98865.25;;;16.15;60.22
75996;BME280;64681;49.738;9.004;2023-03-23T11:25:05;98862.59;;;16.22;59.18
75996;BME280;64681;49.738;9.004;2023-03-23T11:27:33;98876.84;;;16.37;58.54
75996;BME280;64681;49.738;9.004;2023-03-23T11:32:35;98854.56;;;16.44;58.84
75996;BME280;64681;49.738;9.004;2023-03-23T11:35:06;98852.28;;;16.68;57.83
75996;BME280;64681;49.738;9.004;2023-03-23T11:37:40;98856.19;;;16.99;58.03
75996;BME280;64681;49.738;9.004;2023-03-23T11:42:46;98847.91;;;18.00;54.90
75996;BME280;64681;49.738;9.004;2023-03-23T11:48:26;98860.22;;;16.17;58.50
75996;BME280;64681;49.738;9.004;2023-03-23T11:56:21;98869.66;;;15.75;60.42
75996;BME280;64681;49.738;9.004;2023-03-23T11:58:49;98869.00;;;15.92;60.00
75996;BME280;64681;49.738;9.004;2023-03-23T12:35:04;98836.09;;;16.42;60.50
75996;BME280;64681;49.738;9.004;2023-03-23T12:40:51;98824.50;;;16.31;59.99
75996;BME280;64681;49.738;9.004;2023-03-23T12:43:35;98825.13;;;15.92;60.70
75996;BME280;64681;49.738;9.004;2023-03-23T12:49:40;98811.84;;;17.15;57.94
75996;BME280;64681;49.738;9.004;2023-03-23T12:52:18;98795.59;;;17.44;56.49
75996;BME280;64681;49.738;9.004;2023-03-23T12:55:03;98787.16;;;17.38;56.64
75996;BME280;64681;49.738;9.004;2023-03-23T13:00:48;98774.91;;;16.97;57.57
75996;BME280;64681;49.738;9.004;2023-03-23T13:03:24;98759.03;;;17.35;56.76
75996;BME280;64681;49.738;9.004;2023-03-23T13:06:00;98771.75;;;17.24;56.03
75996;BME280;64681;49.738;9.004;2023-03-23T13:08:53;98757.41;;;17.56;54.93
75996;BME280;64681;49.738;9.004;2023-03-23T13:11:30;98766.66;;;17.59;54.14
75996;BME280;64681;49.738;9.004;2023-03-23T13:17:10;98782.97;;;17.12;55.70
75996;BME280;64681;49.738;9.004;2023-03-23T13:22:39;98779.81;;;16.16;59.28
75996;BME280;64681;49.738;9.004;2023-03-23T13:25:15;98774.09;;;16.75;57.77
75996;BME280;64681;49.738;9.004;2023-03-23T13:27:43;98780.66;;;16.85;57.11
75996;BME280;64681;49.738;9.004;2023-03-23T13:30:22;98769.47;;;16.46;58.14
75996;BME280;64681;49.738;9.004;2023-03-23T13:32:51;98774.50;;;16.63;57.73
75996;BME280;64681;49.738;9.004;2023-03-23T13:35:20;98779.13;;;16.95;57.15
75996;BME280;64681;49.738;9.004;2023-03-23T13:37:51;98778.72;;;16.64;56.51
75996;BME280;64681;49.738;9.004;2023-03-23T13:40:30;98783.69;;;16.40;59.04
75996;BME280;64681;49.738;9.004;2023-03-23T13:43:00;98776.72;;;16.13;59.64
75996;BME280;64681;49.738;9.004;2023-03-23T13:48:19;98790.03;;;15.74;59.69
75996;BME280;64681;49.738;9.004;2023-03-23T13:53:31;98783.44;;;15.57;60.90
75996;BME280;64681;49.738;9.004;2023-03-23T13:56:31;98771.59;;;15.72;60.28
75996;BME280;64681;49.738;9.004;2023-03-23T14:01:39;98769.31;;;15.81;60.85
75996;BME280;64681;49.738;9.004;2023-03-23T14:04:13;98764.03;;;16.03;59.39
75996;BME280;64681;49.738;9.004;2023-03-23T14:06:40;98759.03;;;16.05;59.46
75996;BME280;64681;49.738;9.004;2023-03-23T14:09:16;98755.91;;;15.92;60.40
75996;BME280;64681;49.738;9.004;2023-03-23T14:11:50;98761.13;;;15.60;61.04
75996;BME280;64681;49.738;9.004;2023-03-23T14:14:33;98769.97;;;15.53;61.62
75996;BME280;64681;49.738;9.004;2023-03-23T14:17:28;98764.28;;;15.73;61.34
75996;BME280;64681;49.738;9.004;2023-03-23T14:19:57;98758.88;;;15.65;60.28
75996;BME280;64681;49.738;9.004;2023-03-23T14:22:41;98771.09;;;15.48;60.71
75996;BME280;64681;49.738;9.004;2023-03-23T14:27:38;98775.13;;;15.87;60.43
75996;BME280;64681;49.738;9.004;2023-03-23T14:30:14;98779.00;;;15.97;60.09
75996;BME280;64681;49.738;9.004;2023-03-23T14:32:40;98776.16;;;15.61;61.23
75996;BME280;64681;49.738;9.004;2023-03-23T14:37:50;98779.69;;;15.76;60.40
75996;BME280;64681;49.738;9.004;2023-03-23T14:40:17;98775.28;;;15.39;62.17
75996;BME280;64681;49.738;9.004;2023-03-23T14:42:44;98777.56;;;15.37;62.23
75996;BME280;64681;49.738;9.004;2023-03-23T14:45:16;98782.25;;;15.50;62.27
75996;BME280;64681;49.738;9.004;2023-03-23T14:50:36;98795.16;;;15.97;59.90
75996;BME280;64681;49.738;9.004;2023-03-23T14:53:23;98797.75;;;15.82;60.53
75996;BME280;64681;49.738;9.004;2023-03-23T14:55:54;98791.28;;;15.87;60.65
75996;BME280;64681;49.738;9.004;2023-03-23T14:58:23;98792.03;;;15.84;59.97
75996;BME280;64681;49.738;9.004;2023-03-23T15:01:03;98795.16;;;15.93;60.15
75996;BME280;64681;49.738;9.004;2023-03-23T15:03:37;98785.53;;;15.92;60.18
75996;BME280;64681;49.738;9.004;2023-03-23T15:06:13;98787.19;;;15.38;62.52
75996;BME280;64681;49.738;9.004;2023-03-23T15:08:40;98792.03;;;15.84;61.49
75996;BME280;64681;49.738;9.004;2023-03-23T15:13:50;98778.88;;;15.72;60.75
75996;BME280;64681;49.738;9.004;2023-03-23T15:16:26;98781.94;;;15.63;61.70
75996;BME280;64681;49.738;9.004;2023-03-23T15:19:03;98781.31;;;15.95;60.44
75996;BME280;64681;49.738;9.004;2023-03-23T15:21:33;98778.22;;;15.89;60.77
75996;BME280;64681;49.738;9.004;2023-03-23T15:26:51;98774.91;;;15.44;62.22
75996;BME280;64681;49.738;9.004;2023-03-23T15:29:22;98779.41;;;15.22;63.52
75996;BME280;64681;49.738;9.004;2023-03-23T15:31:53;98788.63;;;15.21;63.11
75996;BME280;64681;49.738;9.004;2023-03-23T15:34:33;98777.41;;;15.08;63.82
75996;BME280;64681;49.738;9.004;2023-03-23T15:37:13;98774.91;;;14.81;65.24
75996;BME280;64681;49.738;9.004;2023-03-23T15:39:41;98771.84;;;14.82;65.26
75996;BME280;64681;49.738;9.004;2023-03-23T15:42:25;98772.00;;;15.04;64.44
75996;BME280;64681;49.738;9.004;2023-03-23T15:45:21;98755.41;;;14.95;64.70
75996;BME280;64681;49.738;9.004;2023-03-23T15:52:39;98766.59;;;15.00;63.10